createdAt,value
2018-12-14T00:00:01.335Z,2.10
2018-12-14T00:02:30.226Z,2.00
2018-12-14T00:04:57.861Z,1.90
2018-12-14T00:07:25.506Z,1.90
2018-12-14T00:09:54.911Z,2.00
2018-12-14T00:12:22.944Z,2.10
2018-12-14T00:14:50.652Z,2.00
2018-12-14T00:17:18.397Z,2.00
2018-12-14T00:19:46.055Z,1.90
2018-12-14T00:22:13.708Z,1.90
2018-12-14T00:24:41.744Z,2.00
2018-12-14T00:27:10.037Z,2.10
2018-12-14T00:29:38.301Z,2.00
2018-12-14T00:32:06.045Z,2.00
2018-12-14T00:34:33.875Z,2.10
2018-12-14T00:37:01.691Z,2.00
2018-12-14T00:39:29.456Z,2.10
2018-12-14T00:41:57.116Z,2.10
2018-12-14T00:44:24.767Z,2.10
2018-12-14T00:46:52.401Z,2.00
2018-12-14T00:49:20.057Z,2.00
2018-12-14T00:51:47.756Z,2.10
2018-12-14T00:54:15.489Z,2.00
2018-12-14T00:56:43.181Z,2.00
2018-12-14T00:59:10.857Z,2.10
2018-12-14T01:01:38.513Z,2.10
2018-12-14T01:04:06.209Z,2.10
2018-12-14T01:06:33.883Z,2.10
2018-12-14T01:09:01.605Z,2.00
2018-12-14T01:11:29.383Z,2.00
2018-12-14T01:13:57.049Z,2.00
2018-12-14T01:16:24.767Z,2.00
2018-12-14T01:18:52.387Z,2.10
2018-12-14T01:21:20.097Z,2.10
2018-12-14T01:23:47.893Z,1.90
2018-12-14T01:26:15.785Z,2.00
2018-12-14T01:28:43.440Z,2.00
2018-12-14T01:31:11.094Z,1.90
2018-12-14T01:33:38.759Z,1.90
2018-12-14T01:36:06.408Z,1.90
2018-12-14T01:38:34.058Z,2.00
2018-12-14T01:41:01.738Z,1.80
2018-12-14T01:43:29.372Z,1.80
2018-12-14T01:45:56.985Z,1.70
2018-12-14T01:48:24.685Z,1.80
2018-12-14T01:50:52.303Z,1.80
2018-12-14T01:53:19.938Z,1.80
2018-12-14T01:55:47.671Z,1.80
2018-12-14T01:58:15.312Z,1.80
2018-12-14T02:00:42.943Z,1.80
2018-12-14T02:03:10.604Z,1.80
2018-12-14T02:05:38.251Z,1.90
2018-12-14T02:08:05.905Z,1.90
2018-12-14T02:10:33.623Z,1.80
2018-12-14T02:13:01.337Z,1.80
2018-12-14T02:15:29.172Z,1.90
2018-12-14T02:17:56.847Z,1.80
2018-12-14T02:20:24.482Z,1.80
2018-12-14T02:22:52.138Z,1.90
2018-12-14T02:25:19.841Z,2.00
2018-12-14T02:27:47.509Z,2.00
2018-12-14T02:30:26.887Z,2.00
2018-12-14T02:32:54.548Z,2.10
2018-12-14T02:35:22.207Z,2.00
2018-12-14T02:37:50.131Z,2.10
2018-12-14T02:40:17.773Z,2.10
2018-12-14T02:42:46.320Z,2.00
2018-12-14T02:45:14.214Z,2.00
2018-12-14T02:47:41.971Z,2.10
2018-12-14T02:50:09.665Z,2.00
2018-12-14T02:52:37.570Z,2.10
2018-12-14T02:55:05.371Z,2.10
2018-12-14T02:57:33.053Z,2.00
2018-12-14T03:00:00.707Z,2.10
2018-12-14T03:02:28.597Z,2.20
2018-12-14T03:04:56.268Z,1.90
2018-12-14T03:07:23.935Z,1.90
2018-12-14T03:09:51.577Z,2.00
2018-12-14T03:12:26.517Z,2.00
2018-12-14T03:14:49.039Z,2.10
2018-12-14T03:17:16.948Z,2.20
2018-12-14T03:19:44.751Z,2.00
2018-12-14T03:22:13.868Z,2.20
2018-12-14T03:24:41.632Z,2.20
2018-12-14T03:27:09.540Z,2.20
2018-12-14T03:29:37.226Z,2.10
2018-12-14T03:32:04.948Z,2.10
2018-12-14T03:34:32.664Z,2.30
2018-12-14T03:37:00.328Z,2.30
2018-12-14T03:39:28.054Z,2.20
2018-12-14T03:41:55.769Z,2.30
2018-12-14T03:44:23.445Z,2.30
2018-12-14T03:46:51.112Z,2.20
2018-12-14T03:49:18.796Z,2.20
2018-12-14T03:51:46.432Z,2.40
2018-12-14T03:54:14.142Z,2.30
2018-12-14T03:56:41.856Z,2.20
2018-12-14T03:59:09.519Z,2.40
2018-12-14T04:01:37.257Z,2.30
2018-12-14T04:04:04.945Z,2.20
2018-12-14T04:06:32.602Z,2.20
2018-12-14T04:09:00.399Z,2.30
2018-12-14T04:11:28.124Z,2.20
2018-12-14T04:13:55.826Z,2.40
2018-12-14T04:16:23.485Z,2.30
2018-12-14T04:18:51.194Z,2.30
2018-12-14T04:21:18.917Z,2.40
2018-12-14T04:23:46.571Z,2.40
2018-12-14T04:26:14.227Z,2.40
2018-12-14T04:28:41.841Z,2.30
2018-12-14T04:31:09.517Z,2.40
2018-12-14T04:33:37.311Z,2.40
2018-12-14T04:36:04.967Z,2.40
2018-12-14T04:38:32.585Z,2.40
2018-12-14T04:41:00.277Z,2.50
2018-12-14T04:43:27.955Z,2.30
2018-12-14T04:45:55.628Z,2.50
2018-12-14T04:48:23.375Z,2.50
2018-12-14T04:50:51.076Z,2.50
2018-12-14T04:53:18.815Z,2.30
2018-12-14T04:55:46.550Z,2.50
2018-12-14T04:58:14.288Z,2.50
2018-12-14T05:00:41.994Z,2.40
2018-12-14T05:03:09.634Z,2.40
2018-12-14T05:05:37.267Z,2.30
2018-12-14T05:08:05.067Z,2.40
2018-12-14T05:10:32.692Z,2.40
2018-12-14T05:13:00.340Z,2.30
2018-12-14T05:15:27.993Z,2.50
2018-12-14T05:17:55.749Z,2.50
2018-12-14T05:20:23.409Z,2.30
2018-12-14T05:22:51.046Z,2.40
2018-12-14T05:25:18.685Z,2.40
2018-12-14T05:27:46.329Z,2.50
2018-12-14T05:30:14.166Z,2.40
2018-12-14T05:32:41.817Z,2.30
2018-12-14T05:35:09.570Z,2.40
2018-12-14T05:37:37.230Z,2.40
2018-12-14T05:40:05.057Z,2.40
2018-12-14T05:42:32.721Z,2.30
2018-12-14T05:45:00.397Z,2.40
2018-12-14T05:47:28.177Z,2.40
2018-12-14T05:49:56.003Z,2.50
2018-12-14T05:52:23.704Z,2.40
2018-12-14T05:54:51.755Z,2.40
2018-12-14T05:57:19.401Z,2.40
2018-12-14T05:59:47.069Z,2.50
2018-12-14T06:02:14.762Z,2.50
2018-12-14T06:04:42.558Z,2.40
2018-12-14T06:07:10.192Z,2.40
2018-12-14T06:09:38.033Z,2.50
2018-12-14T06:12:07.266Z,2.50
2018-12-14T06:14:34.984Z,2.60
2018-12-14T06:17:02.631Z,2.50
2018-12-14T06:19:30.425Z,2.60
2018-12-14T06:21:58.245Z,2.60
2018-12-14T06:24:25.930Z,2.50
2018-12-14T06:26:53.593Z,2.50
2018-12-14T06:29:21.256Z,2.50
2018-12-14T06:31:48.886Z,2.60
2018-12-14T06:34:16.589Z,2.40
2018-12-14T06:36:44.352Z,2.50
2018-12-14T06:39:12.052Z,2.40
2018-12-14T06:41:40.268Z,2.40
2018-12-14T06:44:07.960Z,2.30
2018-12-14T06:46:35.572Z,2.50
2018-12-14T06:49:03.263Z,2.40
2018-12-14T06:51:30.949Z,2.40
2018-12-14T06:53:58.603Z,2.30
2018-12-14T06:56:26.339Z,2.30
2018-12-14T06:58:54.236Z,2.30
2018-12-14T07:01:21.995Z,2.40
2018-12-14T07:03:49.824Z,2.50
2018-12-14T07:06:17.600Z,2.30
2018-12-14T07:08:45.243Z,2.50
2018-12-14T07:11:12.985Z,2.50
2018-12-14T07:13:40.687Z,2.40
2018-12-14T07:16:08.351Z,2.50
2018-12-14T07:18:38.765Z,2.50
2018-12-14T07:21:06.783Z,2.40
2018-12-14T07:23:34.426Z,2.40
2018-12-14T07:26:02.105Z,2.40
2018-12-14T07:28:29.735Z,2.30
2018-12-14T07:30:57.386Z,2.30
2018-12-14T07:33:25.003Z,2.40
2018-12-14T07:35:52.641Z,2.30
2018-12-14T07:38:20.246Z,2.40
2018-12-14T07:40:47.890Z,2.30
2018-12-14T07:43:15.628Z,2.20
2018-12-14T07:45:43.299Z,2.30
2018-12-14T07:48:10.966Z,2.30
2018-12-14T07:50:38.710Z,2.20
2018-12-14T07:53:09.135Z,2.30
2018-12-14T07:55:36.338Z,2.10
2018-12-14T07:58:04.031Z,2.30
2018-12-14T08:00:31.774Z,2.40
2018-12-14T08:02:59.497Z,2.30
2018-12-14T08:05:27.206Z,2.30
2018-12-14T08:07:54.905Z,2.40
2018-12-14T08:10:22.975Z,2.30
2018-12-14T08:12:52.027Z,2.30
2018-12-14T08:15:20.063Z,2.30
2018-12-14T08:17:47.720Z,2.40
2018-12-14T08:20:17.278Z,2.50
2018-12-14T08:22:45.065Z,2.30
2018-12-14T08:25:12.827Z,2.50
2018-12-14T08:27:40.523Z,2.30
2018-12-14T08:30:09.278Z,2.30
2018-12-14T08:32:36.969Z,2.50
2018-12-14T08:35:05.661Z,2.50
2018-12-14T08:37:33.128Z,2.40
2018-12-14T08:40:00.890Z,2.50
2018-12-14T08:42:28.712Z,2.60
2018-12-14T08:44:56.430Z,2.50
2018-12-14T08:47:24.085Z,2.50
2018-12-14T08:49:51.739Z,2.70
2018-12-14T08:52:19.504Z,2.50
2018-12-14T08:54:47.130Z,2.50
2018-12-14T08:57:14.850Z,2.60
2018-12-14T08:59:42.532Z,2.50
2018-12-14T09:02:10.295Z,2.50
2018-12-14T09:04:38.039Z,2.70
2018-12-14T09:07:05.728Z,2.70
2018-12-14T09:09:33.387Z,2.70
2018-12-14T09:12:01.057Z,2.60
2018-12-14T09:14:28.749Z,2.60
2018-12-14T09:16:56.397Z,2.70
2018-12-14T09:19:24.057Z,2.70
2018-12-14T09:21:51.718Z,2.80
2018-12-14T09:24:19.568Z,2.80
2018-12-14T09:26:47.368Z,2.90
2018-12-14T09:29:15.103Z,2.80
2018-12-14T09:31:42.879Z,2.80
2018-12-14T09:34:10.546Z,2.80
2018-12-14T09:36:38.189Z,2.90
2018-12-14T09:39:06.362Z,2.80
2018-12-14T09:44:00.781Z,2.80
2018-12-14T09:46:28.481Z,2.80
2018-12-14T09:48:56.183Z,2.70
2018-12-14T09:51:23.846Z,2.70
2018-12-14T09:53:51.560Z,2.80
2018-12-14T09:56:19.364Z,2.80
2018-12-14T09:58:47.060Z,2.90
2018-12-14T10:01:14.895Z,2.90
2018-12-14T10:03:42.729Z,3.00
2018-12-14T10:06:15.723Z,3.10
2018-12-14T10:08:40.828Z,3.10
2018-12-14T10:11:09.244Z,3.10
2018-12-14T10:13:36.946Z,3.00
2018-12-14T10:16:04.829Z,3.00
2018-12-14T10:18:32.640Z,3.20
2018-12-14T10:21:00.332Z,3.20
2018-12-14T10:23:28.152Z,3.20
2018-12-14T10:25:55.869Z,3.20
2018-12-14T10:28:23.601Z,3.10
2018-12-14T10:30:51.284Z,3.10
2018-12-14T10:33:18.932Z,3.30
2018-12-14T10:35:46.549Z,3.20
2018-12-14T10:38:14.266Z,3.40
2018-12-14T10:40:41.878Z,3.40
2018-12-14T10:43:09.573Z,3.40
2018-12-14T10:45:37.536Z,3.40
2018-12-14T10:48:05.250Z,3.30
2018-12-14T10:50:39.236Z,3.30
2018-12-14T10:53:04.762Z,3.30
2018-12-14T10:55:32.417Z,3.30
2018-12-14T10:58:00.290Z,3.40
2018-12-14T11:00:33.625Z,3.50
2018-12-14T11:03:01.366Z,3.10
2018-12-14T11:05:29.055Z,3.20
2018-12-14T11:07:56.747Z,3.30
2018-12-14T11:10:24.505Z,3.10
2018-12-14T11:12:52.223Z,3.30
2018-12-14T11:15:20.033Z,3.30
2018-12-14T11:17:47.731Z,3.10
2018-12-14T11:20:15.335Z,3.30
2018-12-14T11:22:43.024Z,3.40
2018-12-14T11:25:10.713Z,3.20
2018-12-14T11:27:38.387Z,3.40
2018-12-14T11:30:07.650Z,3.40
2018-12-14T11:32:35.362Z,3.60
2018-12-14T11:35:03.131Z,3.50
2018-12-14T11:37:30.857Z,3.70
2018-12-14T11:39:58.528Z,3.70
2018-12-14T11:42:26.275Z,3.70
2018-12-14T11:44:54.015Z,3.60
2018-12-14T11:47:21.947Z,3.30
2018-12-14T11:49:50.765Z,3.30
2018-12-14T11:52:18.413Z,3.00
2018-12-14T11:54:46.205Z,3.10
2018-12-14T11:57:13.968Z,3.10
2018-12-14T11:59:41.741Z,3.00
2018-12-14T12:02:09.497Z,2.90
2018-12-14T12:04:37.124Z,2.90
2018-12-14T12:07:04.840Z,2.90
2018-12-14T12:09:33.440Z,2.80
2018-12-14T12:12:01.310Z,2.80
2018-12-14T12:14:29.118Z,2.80
2018-12-14T12:16:56.856Z,2.70
2018-12-14T12:19:24.681Z,2.70
2018-12-14T12:21:53.438Z,2.70
2018-12-14T12:24:21.186Z,2.60
2018-12-14T12:26:48.923Z,2.70
2018-12-14T12:29:16.620Z,2.60
2018-12-14T12:31:44.405Z,2.60
2018-12-14T12:34:12.175Z,2.80
2018-12-14T12:36:39.958Z,2.90
2018-12-14T12:39:07.901Z,3.00
2018-12-14T12:41:35.572Z,2.90
2018-12-14T12:44:03.301Z,3.10
2018-12-14T12:46:31.115Z,3.20
2018-12-14T12:48:58.851Z,3.20
2018-12-14T12:51:26.795Z,3.20
2018-12-14T12:53:54.453Z,3.20
2018-12-14T12:56:22.223Z,3.30
2018-12-14T12:58:49.936Z,3.30
2018-12-14T13:01:17.629Z,3.30
2018-12-14T13:03:45.370Z,3.50
2018-12-14T13:06:13.000Z,3.50
2018-12-14T13:08:40.615Z,3.50
2018-12-14T13:11:08.331Z,3.50
2018-12-14T13:13:36.001Z,3.50
2018-12-14T13:16:03.743Z,3.50
2018-12-14T13:18:31.567Z,3.50
2018-12-14T13:20:59.227Z,3.50
2018-12-14T13:23:26.926Z,3.70
2018-12-14T13:25:54.548Z,3.60
2018-12-14T13:28:22.575Z,3.60
2018-12-14T13:30:50.355Z,3.50
2018-12-14T13:33:18.307Z,3.40
2018-12-14T13:35:46.025Z,3.50
2018-12-14T13:38:13.677Z,3.50
2018-12-14T13:40:41.489Z,3.40
2018-12-14T13:43:09.228Z,3.30
2018-12-14T13:45:36.907Z,3.40
2018-12-14T13:48:04.571Z,3.20
2018-12-14T13:50:32.373Z,3.30
2018-12-14T13:53:00.102Z,3.30
2018-12-14T13:55:27.744Z,3.40
2018-12-14T13:57:55.420Z,3.40
2018-12-14T14:00:23.223Z,3.30
2018-12-14T14:02:50.980Z,3.40
2018-12-14T14:05:18.730Z,3.30
2018-12-14T14:07:46.515Z,3.30
2018-12-14T14:10:14.326Z,3.10
2018-12-14T14:12:42.022Z,3.10
2018-12-14T14:15:10.026Z,3.10
2018-12-14T14:17:37.702Z,3.00
2018-12-14T14:20:06.821Z,3.10
2018-12-14T14:22:34.588Z,3.10
2018-12-14T14:25:04.367Z,3.10
2018-12-14T14:27:32.094Z,3.10
2018-12-14T14:29:59.778Z,3.00
2018-12-14T14:32:27.518Z,3.10
2018-12-14T14:34:55.218Z,3.00
2018-12-14T14:37:22.891Z,3.20
2018-12-14T14:39:50.597Z,3.20
2018-12-14T14:42:18.401Z,3.20
2018-12-14T14:44:46.024Z,3.20
2018-12-14T14:47:13.769Z,3.00
2018-12-14T14:49:41.461Z,3.00
2018-12-14T14:52:09.084Z,2.80
2018-12-14T14:54:39.863Z,2.90
2018-12-14T14:57:06.425Z,3.00
2018-12-14T14:59:34.599Z,3.10
2018-12-14T15:02:02.479Z,2.90
2018-12-14T15:04:30.154Z,3.10
2018-12-14T15:06:58.699Z,3.20
2018-12-14T15:09:26.372Z,3.10
2018-12-14T15:11:54.070Z,3.10
2018-12-14T15:14:21.794Z,3.10
2018-12-14T15:16:49.574Z,2.90
2018-12-14T15:19:17.291Z,3.10
2018-12-14T15:21:44.920Z,3.00
2018-12-14T15:24:12.828Z,3.10
2018-12-14T15:26:40.494Z,3.00
2018-12-14T15:29:08.168Z,3.10
2018-12-14T15:31:35.612Z,3.00
2018-12-14T15:34:03.264Z,2.90
2018-12-14T15:36:31.016Z,3.00
2018-12-14T15:38:58.807Z,3.00
2018-12-14T15:41:26.530Z,3.00
2018-12-14T15:43:54.170Z,3.00
2018-12-14T15:46:21.889Z,2.90
2018-12-14T15:48:49.547Z,2.90
2018-12-14T15:51:17.172Z,3.00
2018-12-14T15:53:44.797Z,2.90
2018-12-14T15:56:12.471Z,2.90
2018-12-14T15:58:40.071Z,2.80
2018-12-14T16:01:07.633Z,2.90
2018-12-14T16:03:35.038Z,2.90
2018-12-14T16:06:02.670Z,2.90
2018-12-14T16:08:30.256Z,2.90
2018-12-14T16:10:57.912Z,2.90
2018-12-14T16:13:25.542Z,3.00
2018-12-14T16:15:53.215Z,3.00
2018-12-14T16:18:20.705Z,2.90
2018-12-14T16:20:48.386Z,2.90
2018-12-14T16:23:16.353Z,2.90
2018-12-14T16:25:44.035Z,2.90
2018-12-14T16:28:11.650Z,2.90
2018-12-14T16:30:39.306Z,3.00
2018-12-14T16:33:06.961Z,3.00
2018-12-14T16:35:34.645Z,3.00
2018-12-14T16:38:02.291Z,2.90
2018-12-14T16:40:29.955Z,2.70
2018-12-14T16:42:57.588Z,2.90
2018-12-14T16:47:51.408Z,3.10
2018-12-14T16:50:19.206Z,2.90
2018-12-14T16:52:47.654Z,2.80
2018-12-14T16:55:15.496Z,2.80
2018-12-14T16:57:43.161Z,2.90
2018-12-14T17:00:10.831Z,2.80
2018-12-14T17:02:38.584Z,3.00
2018-12-14T17:05:07.291Z,3.00
2018-12-14T17:07:35.187Z,2.90
2018-12-14T17:10:03.495Z,3.00
2018-12-14T17:12:31.246Z,3.30
2018-12-14T17:14:58.858Z,3.30
2018-12-14T17:17:26.534Z,2.90
2018-12-14T17:19:54.011Z,3.10
2018-12-14T17:22:21.659Z,2.90
2018-12-14T17:24:49.334Z,3.00
2018-12-14T17:29:43.750Z,2.90
2018-12-14T17:32:11.384Z,2.80
2018-12-14T17:34:39.039Z,2.80
2018-12-14T17:37:06.712Z,2.70
2018-12-14T17:39:34.343Z,2.80
2018-12-14T17:42:02.025Z,2.60
2018-12-14T17:44:29.712Z,2.80
2018-12-14T17:46:58.074Z,2.80
2018-12-14T17:51:52.758Z,2.80
2018-12-14T17:54:20.413Z,2.90
2018-12-14T17:56:48.067Z,3.20
2018-12-14T17:59:15.699Z,3.00
2018-12-14T18:01:43.367Z,2.90
2018-12-14T18:04:11.009Z,2.90
2018-12-14T18:06:38.693Z,2.70
2018-12-14T18:09:06.445Z,2.80
2018-12-14T18:11:34.089Z,2.90
2018-12-14T18:14:01.737Z,2.70
2018-12-14T18:16:29.455Z,2.90
2018-12-14T18:18:57.111Z,2.80
2018-12-14T18:21:24.780Z,2.90
2018-12-14T18:23:52.419Z,2.70
2018-12-14T18:26:20.125Z,2.80
2018-12-14T18:28:47.951Z,2.80
2018-12-14T18:31:15.567Z,2.90
2018-12-14T18:33:43.240Z,2.80
2018-12-14T18:36:10.851Z,2.80
2018-12-14T18:38:38.483Z,2.80
2018-12-14T18:41:06.119Z,2.60
2018-12-14T18:43:33.708Z,2.70
2018-12-14T18:46:01.371Z,3.40
2018-12-14T18:48:29.031Z,2.80
2018-12-14T18:50:56.705Z,2.90
2018-12-14T18:53:24.395Z,2.90
2018-12-14T18:55:52.015Z,2.90
2018-12-14T18:58:19.683Z,2.80
2018-12-14T19:00:47.347Z,2.90
2018-12-14T19:03:15.021Z,2.90
2018-12-14T19:05:42.637Z,2.70
2018-12-14T19:08:10.332Z,2.80
2018-12-14T19:10:37.976Z,2.80
2018-12-14T19:13:05.602Z,2.90
2018-12-14T19:15:33.298Z,2.90
2018-12-14T19:18:01.013Z,2.80
2018-12-14T19:20:28.709Z,2.70
2018-12-14T19:22:56.438Z,2.80
2018-12-14T19:25:24.158Z,2.90
2018-12-14T19:27:51.833Z,2.80
2018-12-14T19:30:19.489Z,4.00
2018-12-14T19:32:47.260Z,2.80
2018-12-14T19:35:14.898Z,2.70
2018-12-14T19:37:42.593Z,2.70
2018-12-14T19:40:10.278Z,2.70
2018-12-14T19:42:37.957Z,2.80
2018-12-14T19:45:07.280Z,2.80
2018-12-14T19:47:34.994Z,2.80
2018-12-14T19:50:03.729Z,2.70
2018-12-14T19:54:59.133Z,2.60
2018-12-14T19:57:26.814Z,2.70
2018-12-14T19:59:54.490Z,2.70
2018-12-14T20:02:22.347Z,2.80
2018-12-14T20:07:18.215Z,1.30
2018-12-14T20:09:45.891Z,2.70
2018-12-14T20:12:13.625Z,2.70
2018-12-14T20:14:41.261Z,2.60
2018-12-14T20:17:08.991Z,2.60
2018-12-14T20:19:36.690Z,2.40
2018-12-14T20:22:04.487Z,2.40
2018-12-14T20:24:32.118Z,2.50
2018-12-14T20:27:00.016Z,2.50
2018-12-14T20:29:27.749Z,2.50
2018-12-14T20:31:55.397Z,2.40
2018-12-14T20:34:23.081Z,2.50
2018-12-14T20:36:50.770Z,2.40
2018-12-14T20:39:18.452Z,2.40
2018-12-14T20:41:46.104Z,2.50
2018-12-14T20:44:13.742Z,2.30
2018-12-14T20:46:41.416Z,2.40
2018-12-14T20:49:09.112Z,2.10
2018-12-14T20:51:36.759Z,2.30
2018-12-14T20:54:04.422Z,2.10
2018-12-14T20:56:32.119Z,2.30
2018-12-14T20:58:59.776Z,2.30
2018-12-14T21:01:27.432Z,2.30
2018-12-14T21:03:55.094Z,2.20
2018-12-14T21:06:22.764Z,2.30
2018-12-14T21:08:50.368Z,3.00
2018-12-14T21:11:18.070Z,2.20
2018-12-14T21:13:45.681Z,2.30
2018-12-14T21:16:13.340Z,2.70
2018-12-14T21:18:40.996Z,2.10
2018-12-14T21:21:08.672Z,2.10
2018-12-14T21:23:36.310Z,2.20
2018-12-14T21:26:04.002Z,2.20
2018-12-14T21:28:31.651Z,1.80
2018-12-14T21:30:59.332Z,2.00
2018-12-14T21:33:26.987Z,1.80
2018-12-14T21:35:54.623Z,1.90
2018-12-14T21:38:22.207Z,2.00
2018-12-14T21:40:49.874Z,2.00
2018-12-14T21:43:17.551Z,2.50
2018-12-14T21:45:45.264Z,1.80
2018-12-14T21:48:12.919Z,1.90
2018-12-14T21:50:40.655Z,1.80
2018-12-14T21:53:14.238Z,2.00
2018-12-14T21:55:38.166Z,1.90
2018-12-14T21:58:06.040Z,1.80
2018-12-14T22:00:33.676Z,1.80
2018-12-14T22:03:01.312Z,1.80
2018-12-14T22:05:28.962Z,1.70
2018-12-14T22:07:56.629Z,1.80
2018-12-14T22:10:24.280Z,1.90
2018-12-14T22:12:51.933Z,1.90
2018-12-14T22:15:19.558Z,1.90
2018-12-14T22:17:47.190Z,1.80
2018-12-14T22:20:14.838Z,1.90
2018-12-14T22:22:42.534Z,1.80
2018-12-14T22:25:10.189Z,1.80
2018-12-14T22:27:37.864Z,1.70
2018-12-14T22:30:05.841Z,1.80
2018-12-14T22:32:33.656Z,1.70
2018-12-14T22:35:01.309Z,1.90
2018-12-14T22:37:29.014Z,1.80
2018-12-14T22:39:56.741Z,1.70
2018-12-14T22:42:24.451Z,1.70
2018-12-14T22:44:52.096Z,1.90
2018-12-14T22:47:19.734Z,1.90
2018-12-14T22:49:47.422Z,1.90
2018-12-14T22:52:15.079Z,1.70
2018-12-14T22:54:42.690Z,1.70
2018-12-14T22:57:10.345Z,1.90
2018-12-14T22:59:38.045Z,1.80
2018-12-14T23:02:05.720Z,1.80
2018-12-14T23:04:33.371Z,1.80
2018-12-14T23:07:01.015Z,1.80
2018-12-14T23:09:28.746Z,1.80
2018-12-14T23:11:56.417Z,1.70
2018-12-14T23:14:24.050Z,1.70
2018-12-14T23:16:52.330Z,1.70
2018-12-14T23:19:20.232Z,1.70
2018-12-14T23:21:47.867Z,1.80
2018-12-14T23:24:15.537Z,1.90
2018-12-14T23:26:43.253Z,1.80
2018-12-14T23:29:10.877Z,1.90
2018-12-14T23:31:38.541Z,1.90
2018-12-14T23:34:06.158Z,1.90
2018-12-14T23:36:33.814Z,1.80
2018-12-14T23:39:01.405Z,1.80
2018-12-14T23:41:29.046Z,1.90
2018-12-14T23:43:56.677Z,1.80
2018-12-14T23:46:24.296Z,1.80
2018-12-14T23:48:51.934Z,1.90
2018-12-14T23:51:19.561Z,1.90
2018-12-14T23:53:47.201Z,2.00
2018-12-14T23:56:14.916Z,2.00
2018-12-14T23:58:42.571Z,1.80
